createdAt,value
2017-09-06T03:30:50.758Z,19.70
2017-09-06T03:33:18.662Z,19.70
2017-09-06T03:35:46.251Z,19.80
2017-09-06T03:38:13.842Z,19.90
2017-09-06T03:40:41.507Z,19.90
2017-09-06T03:43:09.109Z,19.90
2017-09-06T03:45:37.041Z,19.80
2017-09-06T03:48:04.661Z,19.70
2017-09-06T03:50:32.267Z,19.70
2017-09-06T03:53:00.326Z,19.80
2017-09-06T03:55:27.920Z,19.80
2017-09-06T03:57:55.517Z,19.70
2017-09-06T04:00:23.142Z,19.70
2017-09-06T04:02:50.767Z,19.70
2017-09-06T04:05:18.364Z,19.60
2017-09-06T04:07:46.345Z,19.60
2017-09-06T04:10:13.970Z,19.70
2017-09-06T04:12:41.570Z,19.70
2017-09-06T04:15:09.189Z,19.70
2017-09-06T04:17:36.790Z,19.80
2017-09-06T04:20:05.571Z,19.80
2017-09-06T04:22:33.168Z,19.70
2017-09-06T04:25:00.774Z,19.60
2017-09-06T04:27:28.412Z,19.60
2017-09-06T04:29:56.015Z,19.70
2017-09-06T04:32:23.976Z,19.60
2017-09-06T04:34:51.584Z,19.70
2017-09-06T04:37:19.177Z,19.70
2017-09-06T04:39:46.833Z,19.60
2017-09-06T04:42:14.504Z,19.70
2017-09-06T04:44:42.393Z,19.70
2017-09-06T04:47:09.990Z,19.90
2017-09-06T04:49:37.595Z,19.90
2017-09-06T04:52:05.682Z,19.80
2017-09-06T04:54:33.286Z,19.90
2017-09-06T04:57:00.899Z,19.80
2017-09-06T04:59:28.521Z,19.70
2017-09-06T05:01:56.437Z,19.60
2017-09-06T05:04:24.404Z,19.60
2017-09-06T05:06:52.023Z,19.60
2017-09-06T05:09:19.654Z,19.60
2017-09-06T05:11:47.597Z,19.60
2017-09-06T05:14:15.189Z,19.40
2017-09-06T05:16:42.791Z,19.30
2017-09-06T05:19:10.456Z,19.30
2017-09-06T05:21:38.044Z,19.40
2017-09-06T05:24:06.013Z,19.50
2017-09-06T05:26:33.653Z,19.60
2017-09-06T05:29:01.253Z,19.70
2017-09-06T05:31:29.191Z,19.70
2017-09-06T05:33:56.797Z,19.80
2017-09-06T05:36:24.416Z,19.90
2017-09-06T05:38:52.030Z,19.90
2017-09-06T05:41:19.628Z,19.90
2017-09-06T05:43:47.598Z,20.00
2017-09-06T05:46:15.206Z,20.00
2017-09-06T05:48:42.818Z,20.10
2017-09-06T05:51:10.427Z,20.20
2017-09-06T05:53:38.082Z,20.10
2017-09-06T05:56:06.129Z,20.10
2017-09-06T05:58:33.729Z,20.20
2017-09-06T06:01:01.332Z,20.20
2017-09-06T06:03:28.944Z,20.10
2017-09-06T06:05:56.569Z,20.00
2017-09-06T06:08:24.537Z,20.10
2017-09-06T06:10:52.263Z,20.20
2017-09-06T06:13:19.884Z,20.20
2017-09-06T06:15:47.824Z,20.30
2017-09-06T06:18:15.457Z,20.40
2017-09-06T06:20:43.075Z,20.30
2017-09-06T06:23:11.127Z,20.10
2017-09-06T06:25:38.751Z,20.20
2017-09-06T06:28:06.388Z,20.20
2017-09-06T06:30:34.014Z,20.30
2017-09-06T06:33:01.631Z,20.40
2017-09-06T06:35:29.652Z,20.40
2017-09-06T06:37:57.272Z,20.40
2017-09-06T06:40:24.884Z,20.50
2017-09-06T06:45:26.750Z,20.70
2017-09-06T06:47:54.810Z,20.80
2017-09-06T06:50:22.443Z,21.00
2017-09-06T06:52:50.030Z,21.10
2017-09-06T06:55:18.017Z,21.20
2017-09-06T06:57:45.617Z,21.20
2017-09-06T07:00:13.199Z,21.20
2017-09-06T07:02:41.062Z,21.30
2017-09-06T07:05:08.660Z,21.10
2017-09-06T07:07:36.277Z,21.00
2017-09-06T07:10:04.304Z,20.80
2017-09-06T07:12:32.005Z,20.70
2017-09-06T07:14:59.699Z,20.50
2017-09-06T07:17:27.334Z,20.30
2017-09-06T07:19:55.171Z,20.20
2017-09-06T07:22:23.183Z,20.30
2017-09-06T07:24:50.997Z,20.20
2017-09-06T07:27:18.644Z,20.00
2017-09-06T07:29:46.269Z,19.70
2017-09-06T07:32:13.871Z,19.60
2017-09-06T07:34:41.750Z,19.70
2017-09-06T07:37:09.516Z,20.00
2017-09-06T07:39:37.117Z,20.00
2017-09-06T07:42:04.798Z,20.20
2017-09-06T07:44:32.398Z,20.40
2017-09-06T07:47:00.312Z,20.50
2017-09-06T07:49:27.962Z,20.10
2017-09-06T07:51:55.555Z,20.00
2017-09-06T07:54:23.169Z,20.10
2017-09-06T07:56:50.776Z,20.30
2017-09-06T07:59:18.694Z,20.40
2017-09-06T08:01:46.299Z,20.20
2017-09-06T08:04:13.903Z,20.50
2017-09-06T08:06:41.584Z,20.40
2017-09-06T08:09:09.180Z,20.50
2017-09-06T08:11:37.069Z,20.80
2017-09-06T08:14:04.680Z,21.10
2017-09-06T08:16:32.299Z,21.10
2017-09-06T08:19:00.259Z,21.10
2017-09-06T08:21:27.850Z,20.90
2017-09-06T08:23:55.433Z,20.90
2017-09-06T08:26:23.056Z,20.80
2017-09-06T08:28:50.717Z,21.00
2017-09-06T08:31:18.638Z,20.90
2017-09-06T08:33:46.234Z,21.20
2017-09-06T08:36:13.829Z,21.40
2017-09-06T08:38:41.743Z,21.50
2017-09-06T08:41:09.347Z,21.20
2017-09-06T08:43:36.984Z,20.90
2017-09-06T08:46:04.927Z,21.10
2017-09-06T08:48:32.536Z,21.20
2017-09-06T08:51:00.150Z,20.90
2017-09-06T08:53:27.798Z,20.80
2017-09-06T08:55:58.540Z,20.80
2017-09-06T08:58:26.504Z,21.10
2017-09-06T09:00:54.136Z,21.50
2017-09-06T09:03:21.729Z,22.00
2017-09-06T09:05:49.636Z,22.00
2017-09-06T09:08:17.330Z,22.20
2017-09-06T09:10:44.939Z,22.40
2017-09-06T09:13:12.563Z,22.60
2017-09-06T09:15:40.947Z,22.80
2017-09-06T09:18:08.904Z,22.80
2017-09-06T09:20:36.521Z,23.20
2017-09-06T09:23:04.124Z,23.20
2017-09-06T09:25:31.768Z,22.80
2017-09-06T09:27:59.395Z,22.80
2017-09-06T09:30:27.271Z,22.70
2017-09-06T09:32:54.869Z,22.80
2017-09-06T09:35:22.502Z,23.40
2017-09-06T09:37:50.140Z,24.10
2017-09-06T09:40:17.741Z,24.20
2017-09-06T09:42:45.821Z,23.40
2017-09-06T09:45:13.423Z,24.00
2017-09-06T09:47:41.096Z,24.00
2017-09-06T09:50:08.758Z,23.30
2017-09-06T09:52:36.445Z,22.50
2017-09-06T09:55:04.366Z,22.50
2017-09-06T09:57:31.983Z,23.30
2017-09-06T09:59:59.675Z,22.70
2017-09-06T10:02:27.311Z,23.80
2017-09-06T10:04:54.930Z,25.70
2017-09-06T10:07:22.908Z,26.50
2017-09-06T10:09:50.508Z,27.70
2017-09-06T10:12:18.115Z,27.20
2017-09-06T10:14:45.738Z,26.90
2017-09-06T10:17:13.384Z,25.40
2017-09-06T10:19:41.296Z,25.30
2017-09-06T10:22:08.907Z,26.60
2017-09-06T10:24:36.528Z,29.80
2017-09-06T10:27:04.413Z,32.40
2017-09-06T10:29:32.015Z,34.00
2017-09-06T10:31:59.624Z,33.00
2017-09-06T10:34:27.288Z,34.40
2017-09-06T10:36:55.661Z,34.50
2017-09-06T10:39:23.613Z,34.50
2017-09-06T10:41:51.212Z,36.60
2017-09-06T10:44:18.815Z,35.50
2017-09-06T10:46:46.427Z,33.40
2017-09-06T10:49:14.034Z,30.70
2017-09-06T10:51:42.025Z,30.00
2017-09-06T10:54:09.630Z,27.60
2017-09-06T10:56:37.231Z,26.20
2017-09-06T10:59:04.841Z,25.70
2017-09-06T11:01:32.440Z,25.00
2017-09-06T11:04:00.317Z,24.70
2017-09-06T11:06:27.930Z,24.70
2017-09-06T11:08:55.541Z,24.20
2017-09-06T11:11:23.161Z,23.90
2017-09-06T11:13:50.773Z,23.50
2017-09-06T11:16:18.714Z,23.10
2017-09-06T11:18:46.454Z,23.40
2017-09-06T11:21:14.052Z,24.10
2017-09-06T11:23:41.737Z,24.70
2017-09-06T11:26:09.393Z,25.70
2017-09-06T11:28:37.361Z,25.30
2017-09-06T11:31:05.026Z,24.80
2017-09-06T11:33:32.626Z,24.70
2017-09-06T11:36:00.598Z,25.20
2017-09-06T11:38:28.221Z,25.20
2017-09-06T11:40:55.835Z,25.60
2017-09-06T11:43:23.838Z,26.10
2017-09-06T11:45:51.468Z,25.60
2017-09-06T11:48:19.081Z,25.40
2017-09-06T11:50:46.799Z,24.70
2017-09-06T11:53:14.396Z,24.10
2017-09-06T11:55:42.306Z,23.30
2017-09-06T11:58:10.000Z,24.00
2017-09-06T12:00:37.615Z,24.70
2017-09-06T12:03:05.650Z,25.00
2017-09-06T12:05:33.251Z,24.40
2017-09-06T12:08:00.851Z,24.20
2017-09-06T12:10:28.729Z,24.00
2017-09-06T12:12:56.339Z,23.80
2017-09-06T12:15:23.945Z,23.70
2017-09-06T12:17:51.935Z,24.00
2017-09-06T12:20:19.547Z,23.40
2017-09-06T12:22:47.173Z,23.20
2017-09-06T12:25:15.090Z,23.60
2017-09-06T12:27:42.694Z,24.60
2017-09-06T12:30:10.339Z,25.60
2017-09-06T12:32:37.966Z,26.70
2017-09-06T12:35:05.578Z,28.60
2017-09-06T12:37:33.528Z,31.00
2017-09-06T12:40:01.131Z,31.70
2017-09-06T12:42:28.730Z,30.30
2017-09-06T12:44:56.415Z,28.60
2017-09-06T12:47:24.018Z,27.00
2017-09-06T12:49:51.914Z,25.50
2017-09-06T12:52:19.551Z,24.80
2017-09-06T12:54:47.148Z,24.00
2017-09-06T12:57:14.825Z,23.30
2017-09-06T12:59:42.441Z,23.20
2017-09-06T13:02:10.392Z,23.10
2017-09-06T13:04:38.007Z,23.10
2017-09-06T13:07:05.620Z,23.00
2017-09-06T13:09:33.247Z,22.50
2017-09-06T13:12:00.851Z,22.60
2017-09-06T13:14:28.746Z,22.50
2017-09-06T13:16:56.349Z,22.60
2017-09-06T13:19:23.952Z,22.70
2017-09-06T13:21:51.963Z,23.00
2017-09-06T13:24:19.552Z,23.30
2017-09-06T13:26:47.155Z,23.70
2017-09-06T13:29:15.158Z,23.80
2017-09-06T13:31:42.776Z,23.50
2017-09-06T13:34:10.412Z,23.20
2017-09-06T13:36:38.038Z,23.20
2017-09-06T13:39:05.637Z,23.40
2017-09-06T13:41:33.561Z,23.20
2017-09-06T13:44:01.177Z,23.10
2017-09-06T13:46:28.825Z,23.40
2017-09-06T13:48:56.766Z,23.70
2017-09-06T13:51:24.372Z,23.60
2017-09-06T13:53:51.971Z,23.90
2017-09-06T13:56:19.587Z,23.00
2017-09-06T13:58:47.187Z,23.10
2017-09-06T14:01:15.274Z,23.30
2017-09-06T14:03:42.883Z,23.20
2017-09-06T14:06:10.481Z,23.10
2017-09-06T14:08:38.438Z,22.80
2017-09-06T14:11:06.039Z,22.60
2017-09-06T14:13:34.412Z,22.80
2017-09-06T14:16:03.084Z,22.80
2017-09-06T14:18:30.692Z,22.70
2017-09-06T14:20:58.308Z,22.30
2017-09-06T14:23:26.269Z,22.30
2017-09-06T14:25:53.882Z,22.50
2017-09-06T14:28:21.491Z,22.60
2017-09-06T14:30:49.561Z,22.60
2017-09-06T14:33:17.168Z,22.70
2017-09-06T14:35:44.775Z,22.60
2017-09-06T14:38:12.508Z,22.40
2017-09-06T14:40:40.124Z,22.10
2017-09-06T14:43:08.173Z,21.80
2017-09-06T14:45:35.785Z,21.80
2017-09-06T14:48:03.396Z,21.70
2017-09-06T14:50:30.980Z,21.40
2017-09-06T14:52:58.620Z,21.30
2017-09-06T14:55:26.593Z,21.20
2017-09-06T14:57:54.194Z,21.10
2017-09-06T15:00:21.806Z,21.30
2017-09-06T15:02:49.439Z,21.50
2017-09-06T15:05:17.043Z,21.40
2017-09-06T15:07:45.045Z,21.30
2017-09-06T15:10:12.678Z,21.60
2017-09-06T15:12:40.343Z,21.80
2017-09-06T15:15:08.412Z,21.80
2017-09-06T15:17:36.026Z,22.00
2017-09-06T15:20:03.634Z,22.10
2017-09-06T15:22:31.401Z,22.10
2017-09-06T15:24:58.992Z,22.20
2017-09-06T15:27:27.017Z,22.10
2017-09-06T15:29:54.605Z,22.00
2017-09-06T15:32:22.268Z,21.90
2017-09-06T15:34:49.904Z,22.00
2017-09-06T15:37:17.508Z,22.20
2017-09-06T15:39:45.535Z,22.00
2017-09-06T15:42:13.171Z,21.60
2017-09-06T15:44:40.782Z,21.50
2017-09-06T15:47:08.483Z,21.40
2017-09-06T15:49:36.163Z,21.20
2017-09-06T15:52:04.185Z,21.00
2017-09-06T15:54:31.801Z,20.90
2017-09-06T15:56:59.681Z,20.70
2017-09-06T15:59:27.339Z,20.90
2017-09-06T16:01:54.955Z,20.90
2017-09-06T16:04:22.968Z,20.90
2017-09-06T16:06:50.637Z,20.80
2017-09-06T16:09:18.393Z,20.80
2017-09-06T16:11:46.475Z,20.70
2017-09-06T16:14:14.153Z,20.90
2017-09-06T16:16:41.758Z,20.80
2017-09-06T16:19:09.963Z,20.80
2017-09-06T16:21:37.578Z,20.60
2017-09-06T16:24:05.195Z,20.50
2017-09-06T16:26:33.188Z,20.40
2017-09-06T16:29:00.814Z,20.70
2017-09-06T16:31:28.422Z,20.70
2017-09-06T16:33:56.388Z,20.60
2017-09-06T16:36:24.013Z,20.70
2017-09-06T16:38:51.627Z,20.80
2017-09-06T16:41:19.254Z,20.70
2017-09-06T16:43:46.917Z,20.70
2017-09-06T16:46:14.909Z,20.70
2017-09-06T16:48:42.515Z,20.70
2017-09-06T16:51:10.129Z,20.50
2017-09-06T16:53:37.753Z,20.60
2017-09-06T16:56:05.410Z,20.40
2017-09-06T16:58:33.468Z,20.20
2017-09-06T17:01:01.096Z,20.20
2017-09-06T17:03:28.703Z,20.00
2017-09-06T17:05:56.338Z,20.00
2017-09-06T17:08:23.947Z,19.90
2017-09-06T17:10:51.978Z,19.80
2017-09-06T17:13:19.958Z,19.60
2017-09-06T17:15:47.884Z,19.50
2017-09-06T17:18:15.502Z,19.50
2017-09-06T17:20:43.094Z,19.40
2017-09-06T17:23:11.114Z,19.30
2017-09-06T17:25:39.626Z,19.30
2017-09-06T17:28:07.246Z,19.40
2017-09-06T17:30:34.892Z,19.50
2017-09-06T17:33:02.525Z,19.50
2017-09-06T17:35:30.477Z,19.30
2017-09-06T17:37:58.092Z,19.50
2017-09-06T17:40:25.693Z,19.40
2017-09-06T17:42:53.320Z,19.40
2017-09-06T17:45:20.927Z,19.30
2017-09-06T17:47:48.534Z,19.20
2017-09-06T17:50:16.550Z,19.10
2017-09-06T17:52:44.159Z,18.90
2017-09-06T17:55:11.793Z,18.70
2017-09-06T17:57:39.427Z,18.70
2017-09-06T18:00:07.034Z,18.80
2017-09-06T18:02:35.049Z,18.60
2017-09-06T18:05:02.662Z,18.70
2017-09-06T18:07:30.306Z,18.80
2017-09-06T18:09:57.963Z,18.70
2017-09-06T18:12:25.624Z,18.50
2017-09-06T18:14:53.621Z,18.40
2017-09-06T18:17:21.906Z,18.50
2017-09-06T18:19:49.518Z,18.40
2017-09-06T18:22:17.492Z,18.30
2017-09-06T18:24:45.100Z,18.50
2017-09-06T18:27:12.711Z,18.70
2017-09-06T18:29:40.351Z,18.60
2017-09-06T18:32:10.166Z,18.60
2017-09-06T18:34:38.251Z,18.80
2017-09-06T18:37:06.784Z,19.00
2017-09-06T18:39:34.448Z,19.30
2017-09-06T18:42:03.394Z,19.40
2017-09-06T18:44:31.107Z,19.50
2017-09-06T18:46:59.898Z,19.50
2017-09-06T18:49:28.143Z,19.60
2017-09-06T18:51:55.788Z,19.50
2017-09-06T18:54:23.808Z,19.40
2017-09-06T18:56:51.437Z,19.10
2017-09-06T18:59:19.110Z,18.80
2017-09-06T19:01:47.262Z,18.70
2017-09-06T19:04:14.908Z,19.10
2017-09-06T19:06:42.600Z,19.00
2017-09-06T19:09:10.656Z,19.10
2017-09-06T19:11:38.340Z,19.10
2017-09-06T19:14:06.117Z,19.20
2017-09-06T19:16:34.610Z,19.20
2017-09-06T19:19:02.240Z,19.30
2017-09-06T19:21:30.329Z,19.40
2017-09-06T19:23:58.697Z,19.50
2017-09-06T19:26:26.395Z,19.30
2017-09-06T19:28:54.068Z,19.30
2017-09-06T19:31:21.751Z,19.40
2017-09-06T19:33:49.816Z,19.30
2017-09-06T19:36:17.496Z,19.40
2017-09-06T19:38:45.313Z,19.50
2017-09-06T19:41:12.963Z,19.30
2017-09-06T19:43:40.604Z,19.10
2017-09-06T19:46:08.615Z,18.80
2017-09-06T19:48:36.239Z,18.80
2017-09-06T19:51:03.864Z,18.70
2017-09-06T19:53:31.554Z,18.70
2017-09-06T19:55:59.215Z,18.70
2017-09-06T19:58:28.090Z,18.70
2017-09-06T20:00:55.718Z,18.70
2017-09-06T20:03:23.876Z,18.50
2017-09-06T20:05:51.787Z,18.50
2017-09-06T20:08:19.404Z,18.40
2017-09-06T20:10:47.031Z,18.30
2017-09-06T20:13:14.953Z,18.20
2017-09-06T20:15:42.605Z,18.00
2017-09-06T20:18:10.279Z,17.70
2017-09-06T20:20:38.854Z,17.60
2017-09-06T20:23:06.510Z,17.60
2017-09-06T20:25:34.601Z,17.70
2017-09-06T20:28:02.271Z,17.40
2017-09-06T20:30:30.684Z,17.10
2017-09-06T20:32:58.334Z,17.10
2017-09-06T20:35:26.161Z,17.10
2017-09-06T20:37:54.397Z,16.80
2017-09-06T20:40:22.082Z,16.80
2017-09-06T20:42:49.694Z,16.80
2017-09-06T20:45:17.332Z,16.70
2017-09-06T20:47:44.943Z,16.70
2017-09-06T20:50:12.936Z,16.70
2017-09-06T20:52:40.583Z,16.50
2017-09-06T20:55:08.230Z,16.50
2017-09-06T20:57:35.867Z,16.60
2017-09-06T21:00:03.855Z,16.50
2017-09-06T21:02:31.911Z,16.30
2017-09-06T21:04:59.524Z,16.50
2017-09-06T21:07:27.161Z,16.60
2017-09-06T21:09:54.796Z,16.70
2017-09-06T21:12:22.418Z,16.80
2017-09-06T21:14:50.480Z,17.00
2017-09-06T21:17:18.128Z,16.80
2017-09-06T21:19:45.747Z,16.60
2017-09-06T21:22:13.686Z,16.70
2017-09-06T21:24:41.286Z,16.60
2017-09-06T21:27:09.644Z,16.70
2017-09-06T21:29:37.252Z,16.60
2017-09-06T21:32:04.851Z,16.30
2017-09-06T21:34:32.507Z,16.20
2017-09-06T21:37:00.177Z,16.30
2017-09-06T21:39:28.245Z,16.50
2017-09-06T21:41:56.910Z,16.80
2017-09-06T21:44:24.547Z,16.90
2017-09-06T21:46:52.447Z,17.00
2017-09-06T21:49:20.063Z,17.00
2017-09-06T21:51:47.685Z,17.00
2017-09-06T21:54:15.740Z,16.90
2017-09-06T21:56:43.357Z,16.90
2017-09-06T21:59:10.980Z,17.00
2017-09-06T22:01:39.029Z,17.00
2017-09-06T22:04:06.669Z,17.00
2017-09-06T22:06:34.269Z,17.20
2017-09-06T22:09:01.894Z,17.40
2017-09-06T22:11:29.520Z,17.40
2017-09-06T22:13:57.555Z,17.40
2017-09-06T22:16:25.156Z,17.30
2017-09-06T22:18:52.767Z,17.20
2017-09-06T22:21:20.398Z,17.20
2017-09-06T22:23:47.990Z,17.00
2017-09-06T22:26:16.063Z,16.90
2017-09-06T22:28:43.676Z,16.90
